createdAt,value
2018-12-01T00:01:21.544Z,6.90
2018-12-01T00:03:51.621Z,6.90
2018-12-01T00:06:21.761Z,6.80
2018-12-01T00:08:51.780Z,6.80
2018-12-01T00:11:21.953Z,6.90
2018-12-01T00:13:52.318Z,6.90
2018-12-01T00:16:22.381Z,6.90
2018-12-01T00:18:52.412Z,6.90
2018-12-01T00:21:22.879Z,6.80
2018-12-01T00:23:53.060Z,6.80
2018-12-01T00:26:23.058Z,6.80
2018-12-01T00:28:53.065Z,6.80
2018-12-01T00:31:23.670Z,6.80
2018-12-01T00:33:53.728Z,6.80
2018-12-01T00:36:24.482Z,6.90
2018-12-01T00:38:56.214Z,6.90
2018-12-01T00:41:26.841Z,7.00
2018-12-01T00:43:57.367Z,7.00
2018-12-01T00:46:29.112Z,7.00
2018-12-01T00:49:00.238Z,6.90
2018-12-01T00:51:30.335Z,6.90
2018-12-01T00:54:00.829Z,6.80
2018-12-01T00:56:30.832Z,6.70
2018-12-01T00:59:01.511Z,6.70
2018-12-01T01:01:31.607Z,6.60
2018-12-01T01:04:02.242Z,6.60
2018-12-01T01:06:33.144Z,6.50
2018-12-01T01:09:03.671Z,6.30
2018-12-01T01:11:33.668Z,6.50
2018-12-01T01:14:04.177Z,6.50
2018-12-01T01:16:34.694Z,6.50
2018-12-01T01:19:05.171Z,6.50
2018-12-01T01:21:35.683Z,6.50
2018-12-01T01:24:06.196Z,6.40
2018-12-01T01:26:36.232Z,6.40
2018-12-01T01:29:06.996Z,6.40
2018-12-01T01:31:37.741Z,6.30
2018-12-01T01:34:07.839Z,6.30
2018-12-01T01:36:39.328Z,6.20
2018-12-01T01:39:09.880Z,6.20
2018-12-01T01:41:40.411Z,6.20
2018-12-01T01:44:10.927Z,6.10
2018-12-01T01:46:41.622Z,6.10
2018-12-01T01:49:12.223Z,6.00
2018-12-01T01:51:43.236Z,6.00
2018-12-01T01:54:13.859Z,6.00
2018-12-01T01:56:44.704Z,6.00
2018-12-01T01:59:15.248Z,6.00
2018-12-01T02:01:45.252Z,6.00
2018-12-01T02:04:15.757Z,6.00
2018-12-01T02:06:46.384Z,6.00
2018-12-01T02:09:17.237Z,5.90
2018-12-01T02:11:47.987Z,5.90
2018-12-01T02:14:18.548Z,5.90
2018-12-01T02:16:49.751Z,5.90
2018-12-01T02:19:20.465Z,5.90
2018-12-01T02:21:51.587Z,5.90
2018-12-01T02:24:22.247Z,5.80
2018-12-01T02:26:53.543Z,5.90
2018-12-01T02:29:24.076Z,5.90
2018-12-01T02:31:54.570Z,5.80
2018-12-01T02:34:25.067Z,5.90
2018-12-01T02:36:55.538Z,5.80
2018-12-01T02:39:26.936Z,5.80
2018-12-01T02:41:57.605Z,5.80
2018-12-01T02:44:39.052Z,5.90
2018-12-01T02:47:11.427Z,5.80
2018-12-01T02:49:42.119Z,5.90
2018-12-01T02:52:12.764Z,5.80
2018-12-01T02:54:42.775Z,5.80
2018-12-01T02:57:13.763Z,5.80
2018-12-01T02:59:44.296Z,5.90
2018-12-01T03:02:14.564Z,5.90
2018-12-01T03:04:45.912Z,5.90
2018-12-01T03:07:16.462Z,5.80
2018-12-01T03:09:47.084Z,5.80
2018-12-01T03:12:18.087Z,5.80
2018-12-01T03:14:48.592Z,5.80
2018-12-01T03:17:19.232Z,5.80
2018-12-01T03:19:49.798Z,5.80
2018-12-01T03:22:20.675Z,5.80
2018-12-01T03:24:51.696Z,5.80
2018-12-01T03:27:21.684Z,5.90
2018-12-01T03:29:52.843Z,5.90
2018-12-01T03:32:22.812Z,5.90
2018-12-01T03:34:53.611Z,6.00
2018-12-01T03:37:24.435Z,6.00
2018-12-01T03:39:55.327Z,6.00
2018-12-01T03:42:25.312Z,6.00
2018-12-01T03:44:55.378Z,5.90
2018-12-01T03:47:25.899Z,5.90
2018-12-01T03:49:56.420Z,5.60
2018-12-01T03:52:27.359Z,5.90
2018-12-01T03:54:58.017Z,5.90
2018-12-01T03:57:29.044Z,5.90
2018-12-01T03:59:59.555Z,5.90
2018-12-01T04:02:30.206Z,5.90
2018-12-01T04:05:00.352Z,5.90
2018-12-01T04:07:31.602Z,5.90
2018-12-01T04:10:02.843Z,6.00
2018-12-01T04:12:33.383Z,6.10
2018-12-01T04:15:03.853Z,6.20
2018-12-01T04:17:34.336Z,6.10
2018-12-01T04:20:04.459Z,6.20
2018-12-01T04:22:35.741Z,6.20
2018-12-01T04:25:07.043Z,6.20
2018-12-01T04:27:37.755Z,6.40
2018-12-01T04:30:39.281Z,6.30
2018-12-01T04:33:09.564Z,6.30
2018-12-01T04:35:39.775Z,6.40
2018-12-01T04:38:10.423Z,6.40
2018-12-01T04:40:41.123Z,6.40
2018-12-01T04:43:12.284Z,6.40
2018-12-01T04:45:42.292Z,6.40
2018-12-01T04:48:12.269Z,6.40
2018-12-01T04:50:42.839Z,6.40
2018-12-01T04:53:13.383Z,6.40
2018-12-01T04:55:44.495Z,6.50
2018-12-01T04:58:15.951Z,6.50
2018-12-01T05:00:45.996Z,6.50
2018-12-01T05:03:16.136Z,6.50
2018-12-01T05:05:46.792Z,6.60
2018-12-01T05:08:17.379Z,6.60
2018-12-01T05:10:48.396Z,6.60
2018-12-01T05:13:18.415Z,6.60
2018-12-01T05:15:49.240Z,6.60
2018-12-01T05:18:19.761Z,6.60
2018-12-01T05:20:50.383Z,6.60
2018-12-01T05:23:20.756Z,6.60
2018-12-01T05:25:51.691Z,6.60
2018-12-01T05:28:22.519Z,6.60
2018-12-01T05:30:53.274Z,6.70
2018-12-01T05:33:23.861Z,6.70
2018-12-01T05:35:54.599Z,6.70
2018-12-01T05:38:26.030Z,6.70
2018-12-01T05:40:56.639Z,6.70
2018-12-01T05:43:27.360Z,6.60
2018-12-01T05:45:58.087Z,6.70
2018-12-01T05:48:29.016Z,6.70
2018-12-01T05:50:59.767Z,6.70
2018-12-01T05:53:30.270Z,6.60
2018-12-01T05:56:00.363Z,6.60
2018-12-01T05:58:30.900Z,6.70
2018-12-01T06:01:01.653Z,6.70
2018-12-01T06:03:31.800Z,6.60
2018-12-01T06:06:02.341Z,6.60
2018-12-01T06:08:33.769Z,6.60
2018-12-01T06:11:04.495Z,6.60
2018-12-01T06:13:35.551Z,6.70
2018-12-01T06:16:06.327Z,6.70
2018-12-01T06:18:37.019Z,6.70
2018-12-01T06:21:07.582Z,6.70
2018-12-01T06:23:37.921Z,6.70
2018-12-01T06:26:08.435Z,6.70
2018-12-01T06:28:39.161Z,6.70
2018-12-01T06:31:09.351Z,6.70
2018-12-01T06:33:39.897Z,6.60
2018-12-01T06:36:10.826Z,6.60
2018-12-01T06:38:41.297Z,6.60
2018-12-01T06:41:11.982Z,6.60
2018-12-01T06:43:42.961Z,6.70
2018-12-01T06:46:13.567Z,6.60
2018-12-01T06:48:44.240Z,6.80
2018-12-01T06:51:14.905Z,6.70
2018-12-01T06:53:44.888Z,6.70
2018-12-01T06:56:15.570Z,6.70
2018-12-01T06:58:47.212Z,6.80
2018-12-01T07:01:17.282Z,6.80
2018-12-01T07:03:48.379Z,6.90
2018-12-01T07:06:18.434Z,6.90
2018-12-01T07:08:49.071Z,6.90
2018-12-01T07:11:19.136Z,7.00
2018-12-01T07:13:50.401Z,7.00
2018-12-01T07:16:21.348Z,6.70
2018-12-01T07:19:03.148Z,7.10
2018-12-01T07:21:34.204Z,7.10
2018-12-01T07:24:05.234Z,7.10
2018-12-01T07:26:51.457Z,7.10
2018-12-01T07:29:22.395Z,7.10
2018-12-01T07:31:52.511Z,7.10
2018-12-01T07:34:23.555Z,7.20
2018-12-01T07:36:55.476Z,7.20
2018-12-01T07:39:26.526Z,7.30
2018-12-01T07:41:57.561Z,7.30
2018-12-01T07:44:28.963Z,7.40
2018-12-01T07:46:58.955Z,7.30
2018-12-01T07:49:29.329Z,7.40
2018-12-01T07:51:59.907Z,7.40
2018-12-01T07:54:29.887Z,7.40
2018-12-01T07:57:00.150Z,7.50
2018-12-01T07:59:30.189Z,7.50
2018-12-01T08:02:00.592Z,7.60
2018-12-01T08:04:30.659Z,7.60
2018-12-01T08:07:02.492Z,7.60
2018-12-01T08:09:32.895Z,7.60
2018-12-01T08:12:03.316Z,7.70
2018-12-01T08:14:33.421Z,7.70
2018-12-01T08:17:03.417Z,7.80
2018-12-01T08:19:34.152Z,7.90
2018-12-01T08:22:04.408Z,7.80
2018-12-01T08:24:34.488Z,7.80
2018-12-01T08:27:06.024Z,7.70
2018-12-01T08:29:36.603Z,7.70
2018-12-01T08:32:25.142Z,7.80
2018-12-01T08:34:55.241Z,7.80
2018-12-01T08:37:31.209Z,7.90
2018-12-01T08:40:01.740Z,7.90
2018-12-01T08:42:51.639Z,7.90
2018-12-01T08:45:25.331Z,8.00
2018-12-01T08:47:58.895Z,8.00
2018-12-01T08:50:33.351Z,7.90
2018-12-01T08:53:04.150Z,8.00
2018-12-01T08:55:53.336Z,8.00
2018-12-01T08:58:23.914Z,8.10
2018-12-01T09:00:53.912Z,8.00
2018-12-01T09:03:24.800Z,8.10
2018-12-01T09:06:06.582Z,8.00
2018-12-01T09:08:37.160Z,8.00
2018-12-01T09:11:07.308Z,8.10
2018-12-01T09:13:38.633Z,8.00
2018-12-01T09:16:09.086Z,7.90
2018-12-01T09:18:39.587Z,8.00
2018-12-01T09:21:10.267Z,8.10
2018-12-01T09:23:40.514Z,8.10
2018-12-01T09:26:19.917Z,8.10
2018-12-01T09:28:50.028Z,8.20
2018-12-01T09:31:21.083Z,8.30
2018-12-01T09:33:51.295Z,8.20
2018-12-01T09:36:42.773Z,8.20
2018-12-01T09:39:17.672Z,8.30
2018-12-01T09:41:48.584Z,8.20
2018-12-01T09:44:20.021Z,8.30
2018-12-01T09:46:51.144Z,8.50
2018-12-01T09:49:29.313Z,8.50
2018-12-01T09:52:00.840Z,8.60
2018-12-01T09:54:32.039Z,8.60
2018-12-01T09:57:02.198Z,8.60
2018-12-01T09:59:32.232Z,8.70
2018-12-01T10:02:02.255Z,8.80
2018-12-01T10:04:33.635Z,8.90
2018-12-01T10:07:03.708Z,9.00
2018-12-01T10:09:34.617Z,8.90
2018-12-01T10:12:05.239Z,9.00
2018-12-01T10:14:35.768Z,9.00
2018-12-01T10:17:06.223Z,8.70
2018-12-01T10:19:36.261Z,8.70
2018-12-01T10:22:06.299Z,8.50
2018-12-01T10:24:37.375Z,8.40
2018-12-01T10:27:08.367Z,8.40
2018-12-01T10:29:38.419Z,8.40
2018-12-01T10:32:08.768Z,8.40
2018-12-01T10:34:39.103Z,8.40
2018-12-01T10:37:09.647Z,8.50
2018-12-01T10:39:39.846Z,8.60
2018-12-01T10:42:10.461Z,8.80
2018-12-01T10:44:41.451Z,8.80
2018-12-01T10:47:13.888Z,8.80
2018-12-01T10:49:43.900Z,8.80
2018-12-01T10:52:14.083Z,8.70
2018-12-01T10:54:45.130Z,8.80
2018-12-01T10:57:15.444Z,8.80
2018-12-01T10:59:46.127Z,8.80
2018-12-01T11:02:21.387Z,8.70
2018-12-01T11:04:51.604Z,8.80
2018-12-01T11:07:24.155Z,8.90
2018-12-01T11:09:54.670Z,8.90
2018-12-01T11:12:24.867Z,8.90
2018-12-01T11:14:54.881Z,8.90
2018-12-01T11:17:25.114Z,9.00
2018-12-01T11:19:56.007Z,9.10
2018-12-01T11:22:26.417Z,9.20
2018-12-01T11:24:57.688Z,9.20
2018-12-01T11:27:29.023Z,9.10
2018-12-01T11:29:59.359Z,9.10
2018-12-01T11:32:29.551Z,9.30
2018-12-01T11:35:00.250Z,9.20
2018-12-01T11:37:32.688Z,9.30
2018-12-01T11:40:02.785Z,9.50
2018-12-01T11:42:33.152Z,9.50
2018-12-01T11:45:03.226Z,9.20
2018-12-01T11:47:33.299Z,9.40
2018-12-01T11:50:03.849Z,9.40
2018-12-01T11:52:33.848Z,9.70
2018-12-01T11:55:04.027Z,9.70
2018-12-01T11:57:35.219Z,9.70
2018-12-01T12:00:05.529Z,9.70
2018-12-01T12:02:35.987Z,9.80
2018-12-01T12:05:06.409Z,9.80
2018-12-01T12:07:46.876Z,9.70
2018-12-01T12:10:17.359Z,9.70
2018-12-01T12:12:48.720Z,9.60
2018-12-01T12:15:19.553Z,9.60
2018-12-01T12:17:53.753Z,9.60
2018-12-01T12:20:23.823Z,9.70
2018-12-01T12:22:53.964Z,9.80
2018-12-01T12:25:24.424Z,9.80
2018-12-01T12:27:55.208Z,9.80
2018-12-01T12:30:26.297Z,9.80
2018-12-01T12:32:57.133Z,9.70
2018-12-01T12:35:27.701Z,9.70
2018-12-01T12:37:57.675Z,9.70
2018-12-01T12:40:29.758Z,9.60
2018-12-01T12:43:00.735Z,9.70
2018-12-01T12:45:31.283Z,9.80
2018-12-01T12:48:01.320Z,9.70
2018-12-01T12:50:32.271Z,9.80
2018-12-01T12:53:02.705Z,9.60
2018-12-01T12:55:32.928Z,9.60
2018-12-01T12:58:04.032Z,9.60
2018-12-01T13:00:34.496Z,9.60
2018-12-01T13:03:09.672Z,9.60
2018-12-01T13:05:44.709Z,9.60
2018-12-01T13:08:16.135Z,9.70
2018-12-01T13:10:47.024Z,9.80
2018-12-01T13:13:17.711Z,9.50
2018-12-01T13:15:47.749Z,9.30
2018-12-01T13:18:17.783Z,9.40
2018-12-01T13:21:00.356Z,9.50
2018-12-01T13:23:32.159Z,9.50
2018-12-01T13:26:11.145Z,9.30
2018-12-01T13:28:43.423Z,9.40
2018-12-01T13:31:13.456Z,9.30
2018-12-01T13:33:45.418Z,9.10
2018-12-01T13:36:57.756Z,9.00
2018-12-01T13:39:29.071Z,9.10
2018-12-01T13:41:59.501Z,9.20
2018-12-01T13:44:29.631Z,9.20
2018-12-01T13:46:59.724Z,9.20
2018-12-01T13:49:29.803Z,9.20
2018-12-01T13:52:00.603Z,9.20
2018-12-01T13:54:30.691Z,9.10
2018-12-01T13:57:00.947Z,9.10
2018-12-01T13:59:31.176Z,9.20
2018-12-01T14:02:01.344Z,9.20
2018-12-01T14:04:31.348Z,9.20
2018-12-01T14:07:01.563Z,9.10
2018-12-01T14:09:31.960Z,9.00
2018-12-01T14:13:21.214Z,9.10
2018-12-01T14:15:51.805Z,9.30
2018-12-01T14:18:21.890Z,9.30
2018-12-01T14:20:52.176Z,9.30
2018-12-01T14:23:22.589Z,9.30
2018-12-01T14:25:52.702Z,9.20
2018-12-01T14:28:22.929Z,9.20
2018-12-01T14:30:53.487Z,9.20
2018-12-01T14:33:23.583Z,9.20
2018-12-01T14:35:53.584Z,9.20
2018-12-01T14:38:23.968Z,9.30
2018-12-01T14:40:54.012Z,9.30
2018-12-01T14:43:24.500Z,9.30
2018-12-01T14:45:54.792Z,9.20
2018-12-01T14:48:24.835Z,9.10
2018-12-01T14:50:55.907Z,9.10
2018-12-01T14:53:26.104Z,9.10
2018-12-01T14:55:56.251Z,9.00
2018-12-01T14:58:27.158Z,9.00
2018-12-01T15:00:57.847Z,8.90
2018-12-01T15:03:27.990Z,8.80
2018-12-01T15:05:58.937Z,8.70
2018-12-01T15:08:28.976Z,8.60
2018-12-01T15:10:59.191Z,8.50
2018-12-01T15:13:29.674Z,8.50
2018-12-01T15:16:00.223Z,8.50
2018-12-01T15:18:30.400Z,8.50
2018-12-01T15:21:01.060Z,8.50
2018-12-01T15:23:31.101Z,8.50
2018-12-01T15:26:01.431Z,8.50
2018-12-01T15:28:31.989Z,8.40
2018-12-01T15:31:02.742Z,8.40
2018-12-01T15:33:33.423Z,8.40
2018-12-01T15:36:03.918Z,8.30
2018-12-01T15:38:34.047Z,8.30
2018-12-01T15:41:04.688Z,8.30
2018-12-01T15:43:35.056Z,8.30
2018-12-01T15:46:05.592Z,8.30
2018-12-01T15:48:35.722Z,8.30
2018-12-01T15:51:07.847Z,8.30
2018-12-01T15:53:39.166Z,8.40
2018-12-01T15:56:09.408Z,8.30
2018-12-01T15:58:41.269Z,8.40
2018-12-01T16:01:11.453Z,8.40
2018-12-01T16:03:41.556Z,8.40
2018-12-01T16:06:12.380Z,8.40
2018-12-01T16:08:42.634Z,8.40
2018-12-01T16:11:12.704Z,8.40
2018-12-01T16:13:43.098Z,8.40
2018-12-01T16:16:13.139Z,8.40
2018-12-01T16:18:43.179Z,8.40
2018-12-01T16:21:13.226Z,8.40
2018-12-01T16:23:43.259Z,8.40
2018-12-01T16:26:13.343Z,8.40
2018-12-01T16:28:43.767Z,8.40
2018-12-01T16:31:19.696Z,8.30
2018-12-01T16:33:50.458Z,8.20
2018-12-01T16:36:20.627Z,8.20
2018-12-01T16:38:51.461Z,8.20
2018-12-01T16:41:24.691Z,8.10
2018-12-01T16:43:55.137Z,8.10
2018-12-01T16:46:25.333Z,8.10
2018-12-01T16:48:56.567Z,8.10
2018-12-01T16:51:26.655Z,8.10
2018-12-01T16:53:57.352Z,8.10
2018-12-01T16:56:27.391Z,8.20
2018-12-01T16:58:57.994Z,8.20
2018-12-01T17:01:36.110Z,8.30
2018-12-01T17:04:07.153Z,8.20
2018-12-01T17:06:37.836Z,8.30
2018-12-01T17:09:09.403Z,8.30
2018-12-01T17:11:45.351Z,8.30
2018-12-01T17:14:16.335Z,8.30
2018-12-01T17:16:47.204Z,8.30
2018-12-01T17:19:17.988Z,8.20
2018-12-01T17:21:48.468Z,8.20
2018-12-01T17:24:19.655Z,8.20
2018-12-01T17:26:49.713Z,8.20
2018-12-01T17:29:20.639Z,8.20
2018-12-01T17:31:51.452Z,8.20
2018-12-01T17:34:21.527Z,8.20
2018-12-01T17:36:51.609Z,8.20
2018-12-01T17:39:23.254Z,8.20
2018-12-01T17:41:53.829Z,8.20
2018-12-01T17:44:25.510Z,8.20
2018-12-01T17:46:56.241Z,8.20
2018-12-01T17:49:26.765Z,8.20
2018-12-01T17:51:56.791Z,8.20
2018-12-01T17:54:26.867Z,8.20
2018-12-01T17:56:57.139Z,8.20
2018-12-01T17:59:27.261Z,8.20
2018-12-01T18:01:57.337Z,8.30
2018-12-01T18:04:27.372Z,8.30
2018-12-01T18:06:57.648Z,8.30
2018-12-01T18:09:28.024Z,8.40
2018-12-01T18:11:58.008Z,8.40
2018-12-01T18:14:29.132Z,8.30
2018-12-01T18:17:00.192Z,8.40
2018-12-01T18:19:34.040Z,8.40
2018-12-01T18:22:06.424Z,8.30
2018-12-01T18:24:37.616Z,8.30
2018-12-01T18:27:10.615Z,8.30
2018-12-01T18:29:42.055Z,8.30
2018-12-01T18:32:17.445Z,8.30
2018-12-01T18:34:48.560Z,8.30
2018-12-01T18:37:19.913Z,8.30
2018-12-01T18:39:50.886Z,8.30
2018-12-01T18:42:20.888Z,8.30
2018-12-01T18:44:51.817Z,8.30
2018-12-01T18:47:23.038Z,8.30
2018-12-01T18:49:54.244Z,8.40
2018-12-01T18:52:24.300Z,8.40
2018-12-01T18:54:54.303Z,8.50
2018-12-01T18:57:25.035Z,8.50
2018-12-01T18:59:55.804Z,8.50
2018-12-01T19:02:25.891Z,8.60
2018-12-01T19:04:56.659Z,8.60
2018-12-01T19:07:26.931Z,8.60
2018-12-01T19:09:57.964Z,8.60
2018-12-01T19:12:27.956Z,8.60
2018-12-01T19:14:58.429Z,8.60
2018-12-01T19:17:29.136Z,8.60
2018-12-01T19:19:59.655Z,8.60
2018-12-01T19:22:31.240Z,8.60
2018-12-01T19:25:01.268Z,8.60
2018-12-01T19:27:31.939Z,8.70
2018-12-01T19:30:05.074Z,8.70
2018-12-01T19:32:33.045Z,8.70
2018-12-01T19:35:03.087Z,8.70
2018-12-01T19:37:33.055Z,8.70
2018-12-01T19:40:03.061Z,8.70
2018-12-01T19:42:33.068Z,8.70
2018-12-01T19:45:03.084Z,8.70
2018-12-01T19:47:33.116Z,8.70
2018-12-01T19:50:03.585Z,8.70
2018-12-01T19:52:33.569Z,8.70
2018-12-01T19:55:04.251Z,8.70
2018-12-01T19:57:35.311Z,8.70
2018-12-01T20:00:06.159Z,8.70
2018-12-01T20:02:36.158Z,8.70
2018-12-01T20:05:07.324Z,8.60
2018-12-01T20:07:37.419Z,8.70
2018-12-01T20:10:13.484Z,8.60
2018-12-01T20:12:45.019Z,8.60
2018-12-01T20:15:28.332Z,8.60
2018-12-01T20:17:58.640Z,8.60
2018-12-01T20:20:29.365Z,8.60
2018-12-01T20:23:00.890Z,8.50
2018-12-01T20:25:30.876Z,8.50
2018-12-01T20:28:01.280Z,8.50
2018-12-01T20:30:31.332Z,8.50
2018-12-01T20:33:01.416Z,8.50
2018-12-01T20:35:41.248Z,8.40
2018-12-01T20:38:19.702Z,8.40
2018-12-01T20:40:50.855Z,8.50
2018-12-01T20:43:20.864Z,8.50
2018-12-01T20:45:50.907Z,8.60
2018-12-01T20:48:21.025Z,8.60
2018-12-01T20:50:51.056Z,8.60
2018-12-01T20:53:22.336Z,8.70
2018-12-01T20:55:56.289Z,8.70
2018-12-01T20:58:29.437Z,8.60
2018-12-01T21:00:59.427Z,8.50
2018-12-01T21:03:30.283Z,8.50
2018-12-01T21:06:01.391Z,8.50
2018-12-01T21:08:31.861Z,8.40
2018-12-01T21:11:03.988Z,8.40
2018-12-01T21:13:34.588Z,8.40
2018-12-01T21:16:05.110Z,8.40
2018-12-01T21:18:35.592Z,8.40
2018-12-01T21:21:06.835Z,8.50
2018-12-01T21:23:36.875Z,8.50
2018-12-01T21:26:06.935Z,8.50
2018-12-01T21:28:37.296Z,8.50
2018-12-01T21:31:08.689Z,8.50
2018-12-01T21:33:39.217Z,8.50
2018-12-01T21:36:10.208Z,8.50
2018-12-01T21:38:40.687Z,8.40
2018-12-01T21:41:10.713Z,8.40
2018-12-01T21:43:41.612Z,8.40
2018-12-01T21:46:11.657Z,8.30
2018-12-01T21:48:41.673Z,8.50
2018-12-01T21:51:12.288Z,8.40
2018-12-01T21:53:42.464Z,8.40
2018-12-01T21:56:12.488Z,8.40
2018-12-01T21:58:42.999Z,8.40
2018-12-01T22:01:13.652Z,8.40
2018-12-01T22:03:44.684Z,8.40
2018-12-01T22:06:15.400Z,8.40
2018-12-01T22:08:46.114Z,8.40
2018-12-01T22:11:17.176Z,8.40
2018-12-01T22:13:48.127Z,8.40
2018-12-01T22:16:19.122Z,8.50
2018-12-01T22:18:49.756Z,8.50
2018-12-01T22:21:20.704Z,8.50
2018-12-01T22:23:52.000Z,8.50
2018-12-01T22:26:22.161Z,8.50
2018-12-01T22:28:52.745Z,8.60
2018-12-01T22:31:23.832Z,8.60
2018-12-01T22:33:54.335Z,8.50
2018-12-01T22:36:24.320Z,8.50
2018-12-01T22:38:54.728Z,8.40
2018-12-01T22:41:24.739Z,8.40
2018-12-01T22:43:54.731Z,8.30
2018-12-01T22:46:24.831Z,8.20
2018-12-01T22:48:55.508Z,8.20
2018-12-01T22:51:25.471Z,8.20
2018-12-01T22:53:56.071Z,8.10
2018-12-01T22:56:28.835Z,8.00
2018-12-01T22:58:56.803Z,8.00
2018-12-01T23:01:26.936Z,8.00
2018-12-01T23:03:57.098Z,7.90
2018-12-01T23:06:27.184Z,7.90
2018-12-01T23:08:58.045Z,7.80
2018-12-01T23:11:28.570Z,7.80
2018-12-01T23:13:58.851Z,7.80
2018-12-01T23:16:28.845Z,7.80
2018-12-01T23:18:59.332Z,7.80
2018-12-01T23:21:30.675Z,7.80
2018-12-01T23:24:01.135Z,7.80
2018-12-01T23:26:31.545Z,7.80
2018-12-01T23:29:02.356Z,7.70
2018-12-01T23:31:32.908Z,7.70
2018-12-01T23:34:02.936Z,7.70
2018-12-01T23:36:32.981Z,7.70
2018-12-01T23:39:04.539Z,7.70
2018-12-01T23:41:34.580Z,7.70
2018-12-01T23:44:05.273Z,7.70
2018-12-01T23:46:35.795Z,7.70
2018-12-01T23:49:05.887Z,7.60
2018-12-01T23:51:36.158Z,7.60
2018-12-01T23:54:06.769Z,7.60
2018-12-01T23:56:37.220Z,7.70
2018-12-01T23:59:07.524Z,7.60
